Terminal Aerodrome Forecast
Issued by NWS Cleveland, OH

Home | Current Version | Previous Version | Graphics & Text | Print | Product List | Glossary Off
Versions: 1 2 3 4 5 6 7 8 9 10 11 12 13 14 15 16 17 18 19

800
FTUS41 KCLE 021126
TAFERI
TAF
KERI 021126Z 0212/0312 05012KT 6SM BR OVC003
     FM021800 04005KT P6SM OVC015
     FM030000 VRB02KT P6SM OVC035
     FM030600 VRB02KT 4SM BR OVC003=

USA.gov is the U.S. government's official web portal to all federal, state and local government web resources and services.